sensor_id;sensor_type;location;lat;lon;timestamp;P1;durP1;ratioP1;P2;durP2;ratioP2
56893;SDS011;43392;50.078;13.704;2023-07-20T07:04:10;5.47;;;1.80;;
56893;SDS011;43392;50.078;13.704;2023-07-20T07:06:36;3.88;;;1.80;;
56893;SDS011;43392;50.078;13.704;2023-07-20T07:09:03;3.35;;;1.70;;
56893;SDS011;43392;50.078;13.704;2023-07-20T07:11:30;5.72;;;1.92;;
56893;SDS011;43392;50.078;13.704;2023-07-20T07:13:57;7.00;;;1.70;;
56893;SDS011;43392;50.078;13.704;2023-07-20T07:16:24;5.00;;;1.60;;
56893;SDS011;43392;50.078;13.704;2023-07-20T07:18:50;4.90;;;1.67;;
56893;SDS011;43392;50.078;13.704;2023-07-20T07:21:19;4.13;;;1.70;;
56893;SDS011;43392;50.078;13.704;2023-07-20T07:23:46;4.60;;;2.00;;
56893;SDS011;43392;50.078;13.704;2023-07-20T07:26:13;5.72;;;1.95;;
56893;SDS011;43392;50.078;13.704;2023-07-20T07:28:39;4.35;;;2.05;;
56893;SDS011;43392;50.078;13.704;2023-07-20T07:31:06;5.10;;;1.65;;
56893;SDS011;43392;50.078;13.704;2023-07-20T07:33:33;3.72;;;1.90;;
56893;SDS011;43392;50.078;13.704;2023-07-20T07:36:00;3.22;;;1.98;;
56893;SDS011;43392;50.078;13.704;2023-07-20T07:38:28;4.50;;;1.90;;
56893;SDS011;43392;50.078;13.704;2023-07-20T07:40:55;3.83;;;1.60;;
56893;SDS011;43392;50.078;13.704;2023-07-20T07:43:21;4.05;;;1.80;;
56893;SDS011;43392;50.078;13.704;2023-07-20T07:45:48;5.55;;;1.80;;
56893;SDS011;43392;50.078;13.704;2023-07-20T07:48:15;8.40;;;1.75;;
56893;SDS011;43392;50.078;13.704;2023-07-20T07:50:42;5.72;;;1.90;;
56893;SDS011;43392;50.078;13.704;2023-07-20T07:53:08;4.75;;;1.92;;
56893;SDS011;43392;50.078;13.704;2023-07-20T07:55:36;3.60;;;1.70;;
56893;SDS011;43392;50.078;13.704;2023-07-20T07:58:03;4.93;;;1.60;;
56893;SDS011;43392;50.078;13.704;2023-07-20T08:00:30;4.13;;;1.90;;
56893;SDS011;43392;50.078;13.704;2023-07-20T08:02:56;4.80;;;1.90;;
56893;SDS011;43392;50.078;13.704;2023-07-20T08:05:23;6.60;;;2.00;;
56893;SDS011;43392;50.078;13.704;2023-07-20T08:07:50;8.10;;;4.53;;
56893;SDS011;43392;50.078;13.704;2023-07-20T08:10:17;5.10;;;2.08;;
56893;SDS011;43392;50.078;13.704;2023-07-20T08:12:45;6.93;;;2.53;;
56893;SDS011;43392;50.078;13.704;2023-07-20T08:15:12;6.30;;;1.98;;
56893;SDS011;43392;50.078;13.704;2023-07-20T08:17:39;4.38;;;1.88;;
56893;SDS011;43392;50.078;13.704;2023-07-20T08:20:07;2.95;;;1.52;;
56893;SDS011;43392;50.078;13.704;2023-07-20T08:22:37;4.75;;;1.88;;
56893;SDS011;43392;50.078;13.704;2023-07-20T08:25:03;5.05;;;1.65;;
56893;SDS011;43392;50.078;13.704;2023-07-20T08:27:31;5.00;;;1.80;;
56893;SDS011;43392;50.078;13.704;2023-07-20T08:29:59;5.00;;;1.90;;
56893;SDS011;43392;50.078;13.704;2023-07-20T08:32:25;4.82;;;2.03;;
56893;SDS011;43392;50.078;13.704;2023-07-20T08:34:52;4.60;;;1.95;;
56893;SDS011;43392;50.078;13.704;2023-07-20T08:37:19;4.28;;;1.88;;
56893;SDS011;43392;50.078;13.704;2023-07-20T08:39:46;3.75;;;1.88;;
56893;SDS011;43392;50.078;13.704;2023-07-20T08:42:12;4.40;;;2.00;;
56893;SDS011;43392;50.078;13.704;2023-07-20T08:44:41;4.28;;;1.95;;
56893;SDS011;43392;50.078;13.704;2023-07-20T08:47:10;3.95;;;1.98;;
56893;SDS011;43392;50.078;13.704;2023-07-20T08:49:40;5.25;;;1.70;;
56893;SDS011;43392;50.078;13.704;2023-07-20T08:52:07;3.67;;;2.08;;
56893;SDS011;43392;50.078;13.704;2023-07-20T08:54:35;5.22;;;2.10;;
56893;SDS011;43392;50.078;13.704;2023-07-20T08:57:02;3.55;;;1.63;;
56893;SDS011;43392;50.078;13.704;2023-07-20T08:59:29;4.72;;;1.83;;
56893;SDS011;43392;50.078;13.704;2023-07-20T09:01:57;5.88;;;1.77;;
56893;SDS011;43392;50.078;13.704;2023-07-20T09:04:26;3.30;;;2.08;;
56893;SDS011;43392;50.078;13.704;2023-07-20T09:06:53;4.55;;;1.50;;
56893;SDS011;43392;50.078;13.704;2023-07-20T09:09:19;2.75;;;1.60;;
56893;SDS011;43392;50.078;13.704;2023-07-20T09:11:46;3.20;;;1.70;;
56893;SDS011;43392;50.078;13.704;2023-07-20T09:14:13;4.90;;;1.90;;
56893;SDS011;43392;50.078;13.704;2023-07-20T09:16:49;4.57;;;1.75;;
56893;SDS011;43392;50.078;13.704;2023-07-20T09:19:17;4.93;;;1.85;;
56893;SDS011;43392;50.078;13.704;2023-07-20T09:21:45;3.47;;;1.80;;
56893;SDS011;43392;50.078;13.704;2023-07-20T09:24:12;4.78;;;1.73;;
56893;SDS011;43392;50.078;13.704;2023-07-20T09:26:42;3.63;;;1.80;;
56893;SDS011;43392;50.078;13.704;2023-07-20T09:29:10;3.17;;;1.60;;
56893;SDS011;43392;50.078;13.704;2023-07-20T09:31:37;5.03;;;1.80;;
56893;SDS011;43392;50.078;13.704;2023-07-20T09:34:05;4.20;;;1.63;;
56893;SDS011;43392;50.078;13.704;2023-07-20T09:36:33;4.93;;;1.60;;
56893;SDS011;43392;50.078;13.704;2023-07-20T09:39:02;6.57;;;1.75;;
56893;SDS011;43392;50.078;13.704;2023-07-20T09:41:29;4.70;;;1.63;;
56893;SDS011;43392;50.078;13.704;2023-07-20T09:43:55;3.28;;;1.55;;
56893;SDS011;43392;50.078;13.704;2023-07-20T09:46:22;3.10;;;1.52;;
56893;SDS011;43392;50.078;13.704;2023-07-20T09:48:52;4.95;;;1.60;;
56893;SDS011;43392;50.078;13.704;2023-07-20T09:53:47;6.78;;;1.70;;
56893;SDS011;43392;50.078;13.704;2023-07-20T09:56:17;3.13;;;1.52;;
56893;SDS011;43392;50.078;13.704;2023-07-20T09:58:47;3.67;;;1.70;;
56893;SDS011;43392;50.078;13.704;2023-07-20T10:01:15;4.60;;;1.70;;
56893;SDS011;43392;50.078;13.704;2023-07-20T10:03:46;4.00;;;1.55;;
56893;SDS011;43392;50.078;13.704;2023-07-20T10:06:15;2.80;;;1.98;;
56893;SDS011;43392;50.078;13.704;2023-07-20T10:08:46;4.88;;;1.40;;
56893;SDS011;43392;50.078;13.704;2023-07-20T10:11:15;2.35;;;1.30;;
56893;SDS011;43392;50.078;13.704;2023-07-20T10:13:44;2.73;;;1.40;;
56893;SDS011;43392;50.078;13.704;2023-07-20T10:16:15;3.33;;;1.42;;
56893;SDS011;43392;50.078;13.704;2023-07-20T10:18:50;3.72;;;1.65;;
56893;SDS011;43392;50.078;13.704;2023-07-20T10:21:21;2.97;;;1.33;;
56893;SDS011;43392;50.078;13.704;2023-07-20T10:23:48;3.97;;;1.70;;
56893;SDS011;43392;50.078;13.704;2023-07-20T10:26:17;5.93;;;1.45;;
56893;SDS011;43392;50.078;13.704;2023-07-20T10:28:44;3.22;;;1.73;;
56893;SDS011;43392;50.078;13.704;2023-07-20T10:31:12;10.70;;;1.90;;
56893;SDS011;43392;50.078;13.704;2023-07-20T10:33:39;3.28;;;1.30;;
56893;SDS011;43392;50.078;13.704;2023-07-20T10:36:07;3.00;;;1.58;;
56893;SDS011;43392;50.078;13.704;2023-07-20T10:38:44;4.88;;;1.75;;
56893;SDS011;43392;50.078;13.704;2023-07-20T10:41:21;3.30;;;1.55;;
56893;SDS011;43392;50.078;13.704;2023-07-20T10:46:33;3.35;;;1.60;;
56893;SDS011;43392;50.078;13.704;2023-07-20T10:49:01;4.57;;;1.60;;
56893;SDS011;43392;50.078;13.704;2023-07-20T10:51:29;3.85;;;1.73;;
56893;SDS011;43392;50.078;13.704;2023-07-20T10:53:56;3.72;;;1.90;;
56893;SDS011;43392;50.078;13.704;2023-07-20T10:56:26;3.88;;;1.40;;
56893;SDS011;43392;50.078;13.704;2023-07-20T10:58:57;3.08;;;1.50;;
56893;SDS011;43392;50.078;13.704;2023-07-20T11:03:56;5.03;;;1.42;;
56893;SDS011;43392;50.078;13.704;2023-07-20T11:06:31;2.55;;;1.27;;
56893;SDS011;43392;50.078;13.704;2023-07-20T11:09:04;3.00;;;1.60;;
56893;SDS011;43392;50.078;13.704;2023-07-20T11:11:34;3.60;;;1.58;;
56893;SDS011;43392;50.078;13.704;2023-07-20T11:14:02;3.85;;;1.50;;
56893;SDS011;43392;50.078;13.704;2023-07-20T11:16:34;3.00;;;1.42;;
56893;SDS011;43392;50.078;13.704;2023-07-20T11:19:03;2.55;;;1.55;;
56893;SDS011;43392;50.078;13.704;2023-07-20T11:21:35;4.40;;;1.60;;
56893;SDS011;43392;50.078;13.704;2023-07-20T11:24:03;5.68;;;1.67;;
56893;SDS011;43392;50.078;13.704;2023-07-20T11:26:30;2.15;;;1.40;;
56893;SDS011;43392;50.078;13.704;2023-07-20T11:29:07;4.25;;;1.30;;
56893;SDS011;43392;50.078;13.704;2023-07-20T11:31:37;2.90;;;1.30;;
56893;SDS011;43392;50.078;13.704;2023-07-20T11:34:04;3.63;;;1.58;;
56893;SDS011;43392;50.078;13.704;2023-07-20T11:36:31;2.45;;;1.30;;
56893;SDS011;43392;50.078;13.704;2023-07-20T11:38:58;3.20;;;1.50;;
56893;SDS011;43392;50.078;13.704;2023-07-20T11:41:25;4.30;;;1.70;;
56893;SDS011;43392;50.078;13.704;2023-07-20T11:43:53;2.90;;;1.55;;
56893;SDS011;43392;50.078;13.704;2023-07-20T11:46:20;3.70;;;1.50;;
56893;SDS011;43392;50.078;13.704;2023-07-20T11:48:47;5.45;;;1.63;;
56893;SDS011;43392;50.078;13.704;2023-07-20T11:51:14;4.97;;;1.60;;
56893;SDS011;43392;50.078;13.704;2023-07-20T11:53:42;3.45;;;1.45;;
56893;SDS011;43392;50.078;13.704;2023-07-20T11:56:09;3.58;;;1.55;;
56893;SDS011;43392;50.078;13.704;2023-07-20T11:58:36;3.40;;;1.60;;
56893;SDS011;43392;50.078;13.704;2023-07-20T12:01:09;2.10;;;1.33;;
56893;SDS011;43392;50.078;13.704;2023-07-20T12:03:36;4.63;;;1.42;;
56893;SDS011;43392;50.078;13.704;2023-07-20T12:06:06;3.72;;;1.40;;
56893;SDS011;43392;50.078;13.704;2023-07-20T12:08:33;3.63;;;1.50;;
56893;SDS011;43392;50.078;13.704;2023-07-20T12:10:59;4.93;;;1.80;;
56893;SDS011;43392;50.078;13.704;2023-07-20T12:13:35;3.13;;;1.50;;
56893;SDS011;43392;50.078;13.704;2023-07-20T12:16:06;3.03;;;1.23;;
56893;SDS011;43392;50.078;13.704;2023-07-20T12:18:37;1.92;;;1.10;;
56893;SDS011;43392;50.078;13.704;2023-07-20T12:21:05;2.30;;;1.30;;
56893;SDS011;43392;50.078;13.704;2023-07-20T12:23:34;2.78;;;1.30;;
56893;SDS011;43392;50.078;13.704;2023-07-20T12:26:03;3.00;;;1.30;;
56893;SDS011;43392;50.078;13.704;2023-07-20T12:28:32;3.60;;;1.30;;
56893;SDS011;43392;50.078;13.704;2023-07-20T12:30:58;1.83;;;1.27;;
56893;SDS011;43392;50.078;13.704;2023-07-20T12:33:26;2.80;;;1.35;;
56893;SDS011;43392;50.078;13.704;2023-07-20T12:35:53;4.13;;;1.80;;
56893;SDS011;43392;50.078;13.704;2023-07-20T12:38:21;3.60;;;1.40;;
56893;SDS011;43392;50.078;13.704;2023-07-20T12:40:48;3.00;;;1.50;;
56893;SDS011;43392;50.078;13.704;2023-07-20T12:43:14;3.60;;;1.40;;
56893;SDS011;43392;50.078;13.704;2023-07-20T12:45:41;3.67;;;1.42;;
56893;SDS011;43392;50.078;13.704;2023-07-20T12:48:08;3.20;;;1.58;;
56893;SDS011;43392;50.078;13.704;2023-07-20T12:50:36;3.17;;;1.33;;
56893;SDS011;43392;50.078;13.704;2023-07-20T12:53:02;2.53;;;1.35;;
56893;SDS011;43392;50.078;13.704;2023-07-20T12:55:29;3.13;;;1.33;;
56893;SDS011;43392;50.078;13.704;2023-07-20T12:57:56;2.92;;;1.10;;
56893;SDS011;43392;50.078;13.704;2023-07-20T13:00:22;3.75;;;1.75;;
56893;SDS011;43392;50.078;13.704;2023-07-20T13:02:49;4.60;;;1.40;;
56893;SDS011;43392;50.078;13.704;2023-07-20T13:05:16;2.05;;;1.10;;
56893;SDS011;43392;50.078;13.704;2023-07-20T13:07:44;4.63;;;1.20;;
56893;SDS011;43392;50.078;13.704;2023-07-20T13:10:11;3.50;;;1.30;;
56893;SDS011;43392;50.078;13.704;2023-07-20T13:12:38;2.25;;;1.33;;
56893;SDS011;43392;50.078;13.704;2023-07-20T13:15:07;2.75;;;1.52;;
56893;SDS011;43392;50.078;13.704;2023-07-20T13:17:35;7.00;;;1.75;;
56893;SDS011;43392;50.078;13.704;2023-07-20T13:20:04;4.20;;;1.58;;
56893;SDS011;43392;50.078;13.704;2023-07-20T13:22:32;4.95;;;1.40;;
56893;SDS011;43392;50.078;13.704;2023-07-20T13:25:01;3.35;;;1.40;;
56893;SDS011;43392;50.078;13.704;2023-07-20T13:27:28;4.03;;;1.40;;
56893;SDS011;43392;50.078;13.704;2023-07-20T13:29:56;3.72;;;1.60;;
56893;SDS011;43392;50.078;13.704;2023-07-20T13:32:22;7.47;;;1.65;;
56893;SDS011;43392;50.078;13.704;2023-07-20T13:34:49;3.25;;;1.35;;
56893;SDS011;43392;50.078;13.704;2023-07-20T13:37:15;3.25;;;1.45;;
56893;SDS011;43392;50.078;13.704;2023-07-20T13:39:42;1.92;;;1.00;;
56893;SDS011;43392;50.078;13.704;2023-07-20T13:42:10;3.22;;;1.27;;
56893;SDS011;43392;50.078;13.704;2023-07-20T13:44:37;5.88;;;1.20;;
56893;SDS011;43392;50.078;13.704;2023-07-20T13:47:04;5.50;;;1.35;;
56893;SDS011;43392;50.078;13.704;2023-07-20T13:49:31;6.45;;;1.50;;
56893;SDS011;43392;50.078;13.704;2023-07-20T13:51:58;3.05;;;1.30;;
56893;SDS011;43392;50.078;13.704;2023-07-20T13:54:25;5.22;;;1.40;;
56893;SDS011;43392;50.078;13.704;2023-07-20T13:56:52;4.10;;;1.45;;
56893;SDS011;43392;50.078;13.704;2023-07-20T13:59:20;4.80;;;1.35;;
56893;SDS011;43392;50.078;13.704;2023-07-20T14:01:46;6.18;;;1.40;;
56893;SDS011;43392;50.078;13.704;2023-07-20T14:04:14;3.33;;;1.30;;
56893;SDS011;43392;50.078;13.704;2023-07-20T14:06:42;2.42;;;1.30;;
56893;SDS011;43392;50.078;13.704;2023-07-20T14:09:09;2.97;;;1.17;;
56893;SDS011;43392;50.078;13.704;2023-07-20T14:11:35;2.65;;;1.30;;
56893;SDS011;43392;50.078;13.704;2023-07-20T14:14:02;4.43;;;1.10;;
56893;SDS011;43392;50.078;13.704;2023-07-20T14:16:30;3.00;;;1.10;;
56893;SDS011;43392;50.078;13.704;2023-07-20T14:18:57;4.97;;;1.38;;
56893;SDS011;43392;50.078;13.704;2023-07-20T14:21:24;3.88;;;1.10;;
56893;SDS011;43392;50.078;13.704;2023-07-20T14:23:51;2.80;;;1.00;;
56893;SDS011;43392;50.078;13.704;2023-07-20T14:26:18;3.95;;;1.10;;
56893;SDS011;43392;50.078;13.704;2023-07-20T14:28:45;1.90;;;1.02;;
56893;SDS011;43392;50.078;13.704;2023-07-20T14:31:12;3.92;;;1.40;;
56893;SDS011;43392;50.078;13.704;2023-07-20T14:33:40;3.58;;;1.13;;
56893;SDS011;43392;50.078;13.704;2023-07-20T14:36:07;2.40;;;1.30;;
56893;SDS011;43392;50.078;13.704;2023-07-20T14:38:34;2.28;;;1.05;;
56893;SDS011;43392;50.078;13.704;2023-07-20T14:41:01;1.42;;;1.00;;
56893;SDS011;43392;50.078;13.704;2023-07-20T14:43:28;1.73;;;1.00;;
56893;SDS011;43392;50.078;13.704;2023-07-20T14:45:54;2.05;;;1.10;;
56893;SDS011;43392;50.078;13.704;2023-07-20T14:48:21;3.28;;;1.00;;
56893;SDS011;43392;50.078;13.704;2023-07-20T14:50:49;3.28;;;1.10;;
56893;SDS011;43392;50.078;13.704;2023-07-20T14:53:16;12.68;;;2.22;;
56893;SDS011;43392;50.078;13.704;2023-07-20T14:55:42;1.88;;;1.10;;
56893;SDS011;43392;50.078;13.704;2023-07-20T14:58:09;3.65;;;1.10;;
56893;SDS011;43392;50.078;13.704;2023-07-20T15:00:36;4.70;;;1.27;;
56893;SDS011;43392;50.078;13.704;2023-07-20T15:03:02;6.50;;;1.45;;
56893;SDS011;43392;50.078;13.704;2023-07-20T15:05:30;4.30;;;1.40;;
56893;SDS011;43392;50.078;13.704;2023-07-20T15:07:58;7.90;;;1.17;;
56893;SDS011;43392;50.078;13.704;2023-07-20T15:10:25;3.97;;;1.38;;
56893;SDS011;43392;50.078;13.704;2023-07-20T15:12:51;2.53;;;1.10;;
56893;SDS011;43392;50.078;13.704;2023-07-20T15:15:18;3.85;;;1.10;;
56893;SDS011;43392;50.078;13.704;2023-07-20T15:17:45;2.90;;;1.20;;
56893;SDS011;43392;50.078;13.704;2023-07-20T15:20:12;5.10;;;1.42;;
56893;SDS011;43392;50.078;13.704;2023-07-20T15:22:39;4.00;;;1.15;;
56893;SDS011;43392;50.078;13.704;2023-07-20T15:25:08;1.77;;;1.30;;
56893;SDS011;43392;50.078;13.704;2023-07-20T15:27:36;2.60;;;1.40;;
56893;SDS011;43392;50.078;13.704;2023-07-20T15:30:04;1.95;;;1.25;;
56893;SDS011;43392;50.078;13.704;2023-07-20T15:32:31;4.45;;;1.58;;
56893;SDS011;43392;50.078;13.704;2023-07-20T15:34:58;3.22;;;1.35;;
56893;SDS011;43392;50.078;13.704;2023-07-20T15:37:25;3.00;;;1.25;;
56893;SDS011;43392;50.078;13.704;2023-07-20T15:39:52;2.38;;;1.42;;
56893;SDS011;43392;50.078;13.704;2023-07-20T15:42:20;4.18;;;1.58;;
56893;SDS011;43392;50.078;13.704;2023-07-20T15:44:47;5.03;;;1.60;;
56893;SDS011;43392;50.078;13.704;2023-07-20T15:47:14;2.70;;;1.55;;
56893;SDS011;43392;50.078;13.704;2023-07-20T15:49:41;4.00;;;1.50;;
56893;SDS011;43392;50.078;13.704;2023-07-20T15:52:07;4.47;;;1.85;;
56893;SDS011;43392;50.078;13.704;2023-07-20T15:54:35;2.85;;;1.80;;
56893;SDS011;43392;50.078;13.704;2023-07-20T15:57:02;4.85;;;1.90;;
56893;SDS011;43392;50.078;13.704;2023-07-20T15:59:30;2.88;;;1.80;;
56893;SDS011;43392;50.078;13.704;2023-07-20T16:01:57;3.13;;;1.90;;
56893;SDS011;43392;50.078;13.704;2023-07-20T16:04:23;2.80;;;1.70;;
56893;SDS011;43392;50.078;13.704;2023-07-20T16:06:50;5.07;;;1.63;;
56893;SDS011;43392;50.078;13.704;2023-07-20T16:09:17;4.93;;;1.80;;
56893;SDS011;43392;50.078;13.704;2023-07-20T16:11:43;2.90;;;1.65;;
56893;SDS011;43392;50.078;13.704;2023-07-20T16:14:10;4.38;;;2.00;;
56893;SDS011;43392;50.078;13.704;2023-07-20T16:16:38;4.93;;;1.83;;
56893;SDS011;43392;50.078;13.704;2023-07-20T16:19:05;5.50;;;2.13;;
56893;SDS011;43392;50.078;13.704;2023-07-20T16:21:32;2.88;;;1.75;;
56893;SDS011;43392;50.078;13.704;2023-07-20T16:23:58;5.13;;;2.00;;
56893;SDS011;43392;50.078;13.704;2023-07-20T16:26:26;4.43;;;1.90;;
56893;SDS011;43392;50.078;13.704;2023-07-20T16:28:52;4.28;;;1.83;;
56893;SDS011;43392;50.078;13.704;2023-07-20T16:31:19;4.55;;;1.80;;
56893;SDS011;43392;50.078;13.704;2023-07-20T16:33:47;3.22;;;1.77;;
56893;SDS011;43392;50.078;13.704;2023-07-20T16:36:14;4.05;;;1.90;;
56893;SDS011;43392;50.078;13.704;2023-07-20T16:38:42;6.53;;;2.00;;
56893;SDS011;43392;50.078;13.704;2023-07-20T16:41:09;5.07;;;1.90;;
56893;SDS011;43392;50.078;13.704;2023-07-20T16:43:38;3.88;;;1.95;;
56893;SDS011;43392;50.078;13.704;2023-07-20T16:46:05;3.50;;;1.83;;
56893;SDS011;43392;50.078;13.704;2023-07-20T16:48:34;5.72;;;1.83;;
56893;SDS011;43392;50.078;13.704;2023-07-20T16:51:02;7.15;;;1.95;;
56893;SDS011;43392;50.078;13.704;2023-07-20T16:53:30;6.35;;;2.03;;
56893;SDS011;43392;50.078;13.704;2023-07-20T16:55:56;7.22;;;1.98;;
56893;SDS011;43392;50.078;13.704;2023-07-20T16:58:23;6.13;;;2.15;;
56893;SDS011;43392;50.078;13.704;2023-07-20T17:00:51;4.57;;;1.95;;
56893;SDS011;43392;50.078;13.704;2023-07-20T17:03:24;3.47;;;1.98;;
56893;SDS011;43392;50.078;13.704;2023-07-20T17:05:51;2.40;;;1.70;;
56893;SDS011;43392;50.078;13.704;2023-07-20T17:08:19;4.47;;;1.60;;
56893;SDS011;43392;50.078;13.704;2023-07-20T17:10:45;5.18;;;2.03;;
56893;SDS011;43392;50.078;13.704;2023-07-20T17:13:12;3.60;;;1.80;;
56893;SDS011;43392;50.078;13.704;2023-07-20T17:15:39;2.67;;;1.75;;
56893;SDS011;43392;50.078;13.704;2023-07-20T17:18:06;4.25;;;1.70;;
56893;SDS011;43392;50.078;13.704;2023-07-20T17:20:32;3.42;;;1.60;;
56893;SDS011;43392;50.078;13.704;2023-07-20T17:22:59;2.53;;;1.60;;
56893;SDS011;43392;50.078;13.704;2023-07-20T17:25:28;3.05;;;1.52;;
56893;SDS011;43392;50.078;13.704;2023-07-20T17:27:55;4.53;;;1.88;;
56893;SDS011;43392;50.078;13.704;2023-07-20T17:30:23;5.60;;;1.60;;
56893;SDS011;43392;50.078;13.704;2023-07-20T17:32:50;2.47;;;1.60;;
56893;SDS011;43392;50.078;13.704;2023-07-20T17:35:16;3.17;;;1.60;;
56893;SDS011;43392;50.078;13.704;2023-07-20T17:37:43;4.30;;;1.70;;
56893;SDS011;43392;50.078;13.704;2023-07-20T17:40:10;2.55;;;1.70;;
56893;SDS011;43392;50.078;13.704;2023-07-20T17:42:39;2.35;;;1.40;;
56893;SDS011;43392;50.078;13.704;2023-07-20T17:45:06;3.05;;;1.90;;
56893;SDS011;43392;50.078;13.704;2023-07-20T17:47:33;2.85;;;1.80;;
56893;SDS011;43392;50.078;13.704;2023-07-20T17:50:03;2.63;;;1.85;;
56893;SDS011;43392;50.078;13.704;2023-07-20T17:52:30;4.38;;;1.70;;
56893;SDS011;43392;50.078;13.704;2023-07-20T17:54:56;4.60;;;2.20;;
56893;SDS011;43392;50.078;13.704;2023-07-20T17:57:24;2.85;;;1.58;;
56893;SDS011;43392;50.078;13.704;2023-07-20T17:59:52;3.25;;;1.60;;
56893;SDS011;43392;50.078;13.704;2023-07-20T18:02:19;3.92;;;1.80;;
56893;SDS011;43392;50.078;13.704;2023-07-20T18:04:50;3.33;;;1.80;;
56893;SDS011;43392;50.078;13.704;2023-07-20T18:07:17;5.75;;;2.05;;
56893;SDS011;43392;50.078;13.704;2023-07-20T18:09:43;5.35;;;1.75;;
56893;SDS011;43392;50.078;13.704;2023-07-20T18:12:10;5.30;;;2.05;;
56893;SDS011;43392;50.078;13.704;2023-07-20T18:14:36;3.88;;;2.00;;
56893;SDS011;43392;50.078;13.704;2023-07-20T18:17:04;2.88;;;1.80;;
56893;SDS011;43392;50.078;13.704;2023-07-20T18:19:31;2.30;;;1.60;;
56893;SDS011;43392;50.078;13.704;2023-07-20T18:21:58;4.40;;;1.75;;
56893;SDS011;43392;50.078;13.704;2023-07-20T18:24:24;5.13;;;1.90;;
56893;SDS011;43392;50.078;13.704;2023-07-20T18:26:52;4.40;;;1.98;;
56893;SDS011;43392;50.078;13.704;2023-07-20T18:29:18;4.30;;;1.73;;
56893;SDS011;43392;50.078;13.704;2023-07-20T18:31:45;3.92;;;1.80;;
56893;SDS011;43392;50.078;13.704;2023-07-20T18:34:13;4.07;;;2.03;;
56893;SDS011;43392;50.078;13.704;2023-07-20T18:36:40;4.85;;;2.08;;
56893;SDS011;43392;50.078;13.704;2023-07-20T18:39:06;3.80;;;1.83;;
56893;SDS011;43392;50.078;13.704;2023-07-20T18:41:33;4.60;;;1.90;;
56893;SDS011;43392;50.078;13.704;2023-07-20T18:43:59;3.42;;;1.90;;
56893;SDS011;43392;50.078;13.704;2023-07-20T18:46:26;5.47;;;1.90;;
56893;SDS011;43392;50.078;13.704;2023-07-20T18:48:53;3.47;;;1.75;;
56893;SDS011;43392;50.078;13.704;2023-07-20T18:51:21;4.35;;;2.08;;
56893;SDS011;43392;50.078;13.704;2023-07-20T18:53:48;4.05;;;2.30;;
56893;SDS011;43392;50.078;13.704;2023-07-20T18:56:15;11.60;;;2.80;;
56893;SDS011;43392;50.078;13.704;2023-07-20T18:58:42;7.72;;;3.35;;
56893;SDS011;43392;50.078;13.704;2023-07-20T19:01:08;8.18;;;3.60;;
56893;SDS011;43392;50.078;13.704;2023-07-20T19:03:35;6.20;;;3.15;;
56893;SDS011;43392;50.078;13.704;2023-07-20T19:06:01;6.82;;;3.53;;
56893;SDS011;43392;50.078;13.704;2023-07-20T19:08:31;7.15;;;3.50;;
56893;SDS011;43392;50.078;13.704;2023-07-20T19:10:58;6.88;;;2.50;;
56893;SDS011;43392;50.078;13.704;2023-07-20T19:13:25;6.35;;;2.28;;
56893;SDS011;43392;50.078;13.704;2023-07-20T19:15:52;5.25;;;1.80;;
56893;SDS011;43392;50.078;13.704;2023-07-20T19:18:24;3.92;;;2.03;;
56893;SDS011;43392;50.078;13.704;2023-07-20T19:20:50;4.97;;;2.00;;
56893;SDS011;43392;50.078;13.704;2023-07-20T19:23:17;7.10;;;2.15;;
56893;SDS011;43392;50.078;13.704;2023-07-20T19:25:45;3.90;;;2.13;;
56893;SDS011;43392;50.078;13.704;2023-07-20T19:28:12;3.85;;;1.90;;
56893;SDS011;43392;50.078;13.704;2023-07-20T19:30:38;3.67;;;2.00;;
56893;SDS011;43392;50.078;13.704;2023-07-20T19:33:05;4.68;;;2.20;;
56893;SDS011;43392;50.078;13.704;2023-07-20T19:35:32;4.22;;;1.83;;
56893;SDS011;43392;50.078;13.704;2023-07-20T19:38:01;5.97;;;1.88;;
56893;SDS011;43392;50.078;13.704;2023-07-20T19:40:28;3.75;;;2.00;;
56893;SDS011;43392;50.078;13.704;2023-07-20T19:42:56;4.07;;;1.85;;
56893;SDS011;43392;50.078;13.704;2023-07-20T19:45:23;3.03;;;1.95;;
56893;SDS011;43392;50.078;13.704;2023-07-20T19:47:50;4.07;;;2.13;;
56893;SDS011;43392;50.078;13.704;2023-07-20T19:50:16;5.43;;;2.10;;
56893;SDS011;43392;50.078;13.704;2023-07-20T19:52:43;4.00;;;2.00;;
56893;SDS011;43392;50.078;13.704;2023-07-20T19:55:10;4.65;;;1.80;;
56893;SDS011;43392;50.078;13.704;2023-07-20T19:57:37;4.22;;;1.88;;
56893;SDS011;43392;50.078;13.704;2023-07-20T20:00:06;6.68;;;2.28;;
56893;SDS011;43392;50.078;13.704;2023-07-20T20:02:36;5.85;;;2.00;;
56893;SDS011;43392;50.078;13.704;2023-07-20T20:05:04;4.18;;;2.00;;
56893;SDS011;43392;50.078;13.704;2023-07-20T20:07:31;4.50;;;2.17;;
56893;SDS011;43392;50.078;13.704;2023-07-20T20:09:59;4.50;;;2.03;;
56893;SDS011;43392;50.078;13.704;2023-07-20T20:12:26;2.90;;;1.63;;
56893;SDS011;43392;50.078;13.704;2023-07-20T20:14:53;3.03;;;1.88;;
56893;SDS011;43392;50.078;13.704;2023-07-20T20:17:21;6.03;;;1.92;;
56893;SDS011;43392;50.078;13.704;2023-07-20T20:19:48;6.20;;;2.20;;
56893;SDS011;43392;50.078;13.704;2023-07-20T20:22:15;5.55;;;2.42;;
56893;SDS011;43392;50.078;13.704;2023-07-20T20:24:42;5.30;;;2.40;;
56893;SDS011;43392;50.078;13.704;2023-07-20T20:27:09;3.30;;;1.90;;
56893;SDS011;43392;50.078;13.704;2023-07-20T20:29:36;3.67;;;1.80;;
56893;SDS011;43392;50.078;13.704;2023-07-20T20:32:03;3.58;;;2.17;;
56893;SDS011;43392;50.078;13.704;2023-07-20T20:34:31;5.88;;;2.28;;
56893;SDS011;43392;50.078;13.704;2023-07-20T20:36:58;5.97;;;2.17;;
56893;SDS011;43392;50.078;13.704;2023-07-20T20:39:26;3.13;;;1.83;;
56893;SDS011;43392;50.078;13.704;2023-07-20T20:41:53;4.32;;;2.20;;
56893;SDS011;43392;50.078;13.704;2023-07-20T20:44:19;3.78;;;2.08;;
56893;SDS011;43392;50.078;13.704;2023-07-20T20:46:51;3.65;;;2.15;;
56893;SDS011;43392;50.078;13.704;2023-07-20T20:49:25;5.05;;;2.00;;
56893;SDS011;43392;50.078;13.704;2023-07-20T20:51:54;5.38;;;2.38;;
56893;SDS011;43392;50.078;13.704;2023-07-20T20:54:20;4.40;;;1.90;;
56893;SDS011;43392;50.078;13.704;2023-07-20T20:56:47;6.05;;;2.15;;
56893;SDS011;43392;50.078;13.704;2023-07-20T20:59:14;3.05;;;2.00;;
56893;SDS011;43392;50.078;13.704;2023-07-20T21:01:44;3.40;;;2.22;;
56893;SDS011;43392;50.078;13.704;2023-07-20T21:04:11;4.15;;;2.20;;
56893;SDS011;43392;50.078;13.704;2023-07-20T21:06:38;8.50;;;1.90;;
56893;SDS011;43392;50.078;13.704;2023-07-20T21:09:06;2.78;;;1.88;;
56893;SDS011;43392;50.078;13.704;2023-07-20T21:11:33;4.60;;;2.00;;
56893;SDS011;43392;50.078;13.704;2023-07-20T21:13:59;3.75;;;2.00;;
56893;SDS011;43392;50.078;13.704;2023-07-20T21:16:26;2.65;;;1.80;;
56893;SDS011;43392;50.078;13.704;2023-07-20T21:18:52;4.57;;;2.03;;
56893;SDS011;43392;50.078;13.704;2023-07-20T21:21:19;3.55;;;1.90;;
56893;SDS011;43392;50.078;13.704;2023-07-20T21:23:46;3.47;;;1.88;;
56893;SDS011;43392;50.078;13.704;2023-07-20T21:26:14;4.15;;;2.15;;
56893;SDS011;43392;50.078;13.704;2023-07-20T21:28:40;2.88;;;2.15;;
56893;SDS011;43392;50.078;13.704;2023-07-20T21:31:07;5.18;;;2.03;;
56893;SDS011;43392;50.078;13.704;2023-07-20T21:33:34;4.20;;;1.92;;
56893;SDS011;43392;50.078;13.704;2023-07-20T21:36:00;3.85;;;1.85;;
56893;SDS011;43392;50.078;13.704;2023-07-20T21:38:27;3.63;;;2.00;;
56893;SDS011;43392;50.078;13.704;2023-07-20T21:40:55;3.33;;;2.05;;
56893;SDS011;43392;50.078;13.704;2023-07-20T21:43:23;3.22;;;1.90;;
56893;SDS011;43392;50.078;13.704;2023-07-20T21:45:50;4.35;;;2.30;;